createdAt,value
2017-11-03T00:00:39.657Z,80.83
2017-11-03T00:03:07.988Z,81.93
2017-11-03T00:05:36.326Z,77.63
2017-11-03T00:08:04.641Z,77.53
2017-11-03T00:10:32.954Z,82.07
2017-11-03T00:13:01.295Z,72.87
2017-11-03T00:15:29.632Z,75.30
2017-11-03T00:17:58.716Z,81.53
2017-11-03T00:20:27.044Z,91.63
2017-11-03T00:22:55.353Z,80.40
2017-11-03T00:25:23.680Z,70.77
2017-11-03T00:27:52.757Z,71.47
2017-11-03T00:30:21.068Z,84.50
2017-11-03T00:32:49.386Z,75.50
2017-11-03T00:35:17.705Z,70.03
2017-11-03T00:37:46.770Z,74.33
2017-11-03T00:40:15.086Z,74.63
2017-11-03T00:42:43.385Z,82.30
2017-11-03T00:45:11.691Z,64.63
2017-11-03T00:47:40.025Z,76.07
2017-11-03T00:50:08.325Z,69.43
2017-11-03T00:52:36.622Z,74.97
2017-11-03T00:55:04.955Z,73.33
2017-11-03T00:57:33.269Z,81.23
2017-11-03T01:00:01.602Z,73.97
2017-11-03T01:02:29.908Z,90.23
2017-11-03T01:04:58.229Z,88.93
2017-11-03T01:07:26.533Z,72.30
2017-11-03T01:09:55.617Z,86.37
2017-11-03T01:12:24.677Z,97.87
2017-11-03T01:14:52.996Z,100.53
2017-11-03T01:17:22.053Z,90.63
2017-11-03T01:19:50.424Z,80.60
2017-11-03T01:22:18.741Z,82.00
2017-11-03T01:24:47.812Z,90.60
2017-11-03T01:27:16.127Z,87.53
2017-11-03T01:29:44.427Z,88.37
2017-11-03T01:32:12.757Z,80.77
2017-11-03T01:34:41.055Z,77.77
2017-11-03T01:37:09.361Z,88.67
2017-11-03T01:39:37.654Z,84.93
2017-11-03T01:42:05.972Z,75.40
2017-11-03T01:44:35.052Z,91.37
2017-11-03T01:47:03.357Z,85.53
2017-11-03T01:49:31.660Z,84.93
2017-11-03T01:51:59.981Z,84.53
2017-11-03T01:54:28.326Z,85.47
2017-11-03T01:56:56.642Z,81.13
2017-11-03T01:59:24.944Z,88.00
2017-11-03T02:01:53.263Z,73.27
2017-11-03T02:04:21.583Z,90.13
2017-11-03T02:06:50.657Z,77.23
2017-11-03T02:09:18.968Z,68.73
2017-11-03T02:11:48.045Z,75.43
2017-11-03T02:14:17.136Z,74.97
2017-11-03T02:16:45.459Z,87.53
2017-11-03T02:19:13.757Z,77.47
2017-11-03T02:21:42.061Z,84.37
2017-11-03T02:24:10.378Z,92.37
2017-11-03T02:26:38.681Z,93.77
2017-11-03T02:29:06.995Z,77.87
2017-11-03T02:31:35.313Z,66.50
2017-11-03T02:34:03.608Z,74.10
2017-11-03T02:36:31.929Z,65.33
2017-11-03T02:39:00.246Z,85.60
2017-11-03T02:41:28.553Z,90.70
2017-11-03T02:43:56.848Z,77.43
2017-11-03T02:46:25.170Z,73.00
2017-11-03T02:48:53.480Z,75.13
2017-11-03T02:51:21.797Z,68.63
2017-11-03T02:53:50.871Z,60.63
2017-11-03T02:56:19.203Z,63.97
2017-11-03T02:58:47.510Z,71.53
2017-11-03T03:01:15.839Z,57.00
2017-11-03T03:03:44.918Z,61.53
2017-11-03T03:06:13.235Z,58.80
2017-11-03T03:08:41.611Z,51.90
2017-11-03T03:11:09.996Z,57.10
2017-11-03T03:13:38.315Z,48.93
2017-11-03T03:16:06.642Z,53.47
2017-11-03T03:18:34.952Z,58.47
2017-11-03T03:21:03.279Z,56.77
2017-11-03T03:23:32.368Z,63.67
2017-11-03T03:26:01.502Z,56.97
2017-11-03T03:28:29.815Z,53.47
2017-11-03T03:30:58.139Z,61.70
2017-11-03T03:33:26.450Z,52.33
2017-11-03T03:35:54.777Z,56.53
2017-11-03T03:38:23.867Z,63.13
2017-11-03T03:40:52.938Z,53.80
2017-11-03T03:43:21.257Z,55.67
2017-11-03T03:45:49.567Z,51.13
2017-11-03T03:48:17.898Z,52.23
2017-11-03T03:50:46.229Z,47.27
2017-11-03T03:53:14.567Z,53.70
2017-11-03T03:55:42.895Z,57.70
2017-11-03T03:58:11.222Z,58.37
2017-11-03T04:00:40.297Z,69.77
2017-11-03T04:03:09.383Z,74.77
2017-11-03T04:05:37.693Z,72.43
2017-11-03T04:08:06.029Z,77.43
2017-11-03T04:10:34.339Z,69.60
2017-11-03T04:13:03.424Z,68.40
2017-11-03T04:15:31.765Z,63.27
2017-11-03T04:18:00.085Z,65.57
2017-11-03T04:20:29.168Z,69.40
2017-11-03T04:22:57.490Z,58.90
2017-11-03T04:25:25.822Z,71.20
2017-11-03T04:27:54.177Z,75.37
2017-11-03T04:30:22.490Z,63.00
2017-11-03T04:32:51.582Z,73.87
2017-11-03T04:35:20.715Z,72.53
2017-11-03T04:37:49.070Z,63.50
2017-11-03T04:40:17.386Z,66.60
2017-11-03T04:42:45.714Z,74.83
2017-11-03T04:45:14.786Z,67.47
2017-11-03T04:47:43.102Z,65.73
2017-11-03T04:50:11.419Z,64.73
2017-11-03T04:52:39.742Z,66.90
2017-11-03T04:55:08.819Z,66.50
2017-11-03T04:57:37.131Z,70.53
2017-11-03T05:00:05.447Z,76.90
2017-11-03T05:02:33.772Z,76.00
2017-11-03T05:05:02.870Z,69.63
2017-11-03T05:07:31.942Z,79.70
2017-11-03T05:10:00.261Z,65.53
2017-11-03T05:12:28.566Z,79.10
2017-11-03T05:14:56.894Z,93.37
2017-11-03T05:17:25.994Z,79.87
2017-11-03T05:19:55.069Z,79.63
2017-11-03T05:22:23.381Z,86.63
2017-11-03T05:24:51.713Z,75.57
2017-11-03T05:27:20.017Z,74.70
2017-11-03T05:29:49.104Z,73.47
2017-11-03T05:32:18.180Z,77.70
2017-11-03T05:34:46.506Z,83.73
2017-11-03T05:37:14.810Z,68.60
2017-11-03T05:39:43.134Z,64.27
2017-11-03T05:42:11.434Z,70.30
2017-11-03T05:44:39.765Z,67.70
2017-11-03T05:47:08.088Z,69.93
2017-11-03T05:49:36.406Z,65.80
2017-11-03T05:52:04.768Z,74.23
2017-11-03T05:54:33.085Z,74.03
2017-11-03T05:57:01.385Z,75.80
2017-11-03T05:59:30.462Z,63.77
2017-11-03T06:01:58.762Z,71.17
2017-11-03T06:04:27.082Z,75.33
2017-11-03T06:06:55.411Z,66.60
2017-11-03T06:09:24.490Z,70.67
2017-11-03T06:11:52.790Z,66.20
2017-11-03T06:14:21.123Z,62.33
2017-11-03T06:16:49.451Z,69.07
2017-11-03T06:19:17.798Z,64.97
2017-11-03T06:21:46.106Z,66.33
2017-11-03T06:24:14.433Z,75.20
2017-11-03T06:26:43.562Z,82.50
2017-11-03T06:29:12.646Z,71.10
2017-11-03T06:31:40.946Z,69.43
2017-11-03T06:34:09.285Z,68.50
2017-11-03T06:36:37.590Z,66.00
2017-11-03T06:39:06.671Z,67.00
2017-11-03T06:41:34.970Z,59.77
2017-11-03T06:44:04.050Z,72.53
2017-11-03T06:46:33.119Z,76.40
2017-11-03T06:49:01.436Z,71.37
2017-11-03T06:51:30.518Z,64.50
2017-11-03T06:53:59.601Z,61.93
2017-11-03T06:56:27.902Z,62.13
2017-11-03T06:58:56.974Z,54.77
2017-11-03T07:01:25.282Z,64.70
2017-11-03T07:03:53.598Z,63.40
2017-11-03T07:06:21.908Z,64.73
2017-11-03T07:08:50.210Z,57.40
2017-11-03T07:11:19.282Z,58.33
2017-11-03T07:13:47.579Z,56.67
2017-11-03T07:16:16.654Z,62.43
2017-11-03T07:18:44.958Z,58.20
2017-11-03T07:21:13.295Z,68.40
2017-11-03T07:23:41.631Z,58.77
2017-11-03T07:26:09.953Z,52.27
2017-11-03T07:28:38.257Z,59.27
2017-11-03T07:31:07.337Z,57.67
2017-11-03T07:33:35.630Z,58.53
2017-11-03T07:36:04.708Z,58.80
2017-11-03T07:38:33.011Z,54.40
2017-11-03T07:41:01.348Z,55.80
2017-11-03T07:43:29.653Z,52.23
2017-11-03T07:45:58.740Z,50.53
2017-11-03T07:48:28.632Z,58.93
2017-11-03T07:50:56.958Z,53.63
2017-11-03T07:53:25.274Z,55.13
2017-11-03T07:55:54.207Z,55.57
2017-11-03T07:58:23.293Z,57.53
2017-11-03T08:00:51.605Z,49.57
2017-11-03T08:03:19.914Z,52.63
2017-11-03T08:05:48.225Z,57.10
2017-11-03T08:08:16.550Z,51.33
2017-11-03T08:10:44.869Z,48.13
2017-11-03T08:13:13.186Z,50.87
2017-11-03T08:15:41.514Z,50.90
2017-11-03T08:18:09.819Z,56.23
2017-11-03T08:20:38.913Z,59.40
2017-11-03T08:23:08.002Z,54.90
2017-11-03T08:25:36.324Z,53.43
2017-11-03T08:28:04.641Z,52.60
2017-11-03T08:30:32.958Z,56.00
2017-11-03T08:33:01.270Z,47.67
2017-11-03T08:35:29.585Z,56.70
2017-11-03T08:37:57.890Z,51.77
2017-11-03T08:40:26.217Z,49.43
2017-11-03T08:42:54.530Z,43.10
2017-11-03T08:45:23.617Z,50.83
2017-11-03T08:47:51.934Z,37.50
2017-11-03T08:50:20.262Z,30.63
2017-11-03T08:52:48.575Z,26.13
2017-11-03T08:55:16.946Z,26.50
2017-11-03T08:57:46.014Z,22.47
2017-11-03T09:00:14.330Z,21.07
2017-11-03T09:02:42.638Z,20.33
2017-11-03T09:05:10.954Z,17.57
2017-11-03T09:07:39.272Z,16.33
2017-11-03T09:10:07.600Z,16.20
2017-11-03T09:12:35.939Z,15.63
2017-11-03T09:15:04.254Z,14.33
2017-11-03T09:17:32.563Z,19.83
2017-11-03T09:20:01.643Z,14.60
2017-11-03T09:22:30.759Z,16.47
2017-11-03T09:24:59.074Z,15.80
2017-11-03T09:27:27.402Z,15.67
2017-11-03T09:29:55.734Z,16.87
2017-11-03T09:32:24.058Z,16.30
2017-11-03T09:34:53.138Z,15.03
2017-11-03T09:37:21.459Z,17.33
2017-11-03T09:39:49.782Z,19.13
2017-11-03T09:42:18.125Z,20.27
2017-11-03T09:44:46.438Z,19.90
2017-11-03T09:47:14.776Z,19.93
2017-11-03T09:49:43.087Z,22.60
2017-11-03T09:52:11.426Z,27.13
2017-11-03T09:54:39.730Z,23.00
2017-11-03T09:57:08.058Z,21.73
2017-11-03T09:59:36.374Z,17.83
2017-11-03T10:02:04.686Z,14.13
2017-11-03T10:04:33.008Z,20.33
2017-11-03T10:07:01.339Z,21.00
2017-11-03T10:09:29.646Z,15.33
2017-11-03T10:11:57.973Z,17.13
2017-11-03T10:14:26.318Z,20.23
2017-11-03T10:16:54.638Z,20.30
2017-11-03T10:19:22.953Z,20.13
2017-11-03T10:21:52.043Z,16.80
2017-11-03T10:24:21.110Z,21.10
2017-11-03T10:26:49.438Z,20.30
2017-11-03T10:29:17.757Z,19.57
2017-11-03T10:31:46.073Z,21.73
2017-11-03T10:34:14.397Z,25.07
2017-11-03T10:36:42.715Z,22.00
2017-11-03T10:39:11.787Z,22.13
2017-11-03T10:41:40.118Z,18.43
2017-11-03T10:44:08.434Z,22.57
2017-11-03T10:46:36.785Z,17.73
2017-11-03T10:49:05.094Z,18.50
2017-11-03T10:51:33.419Z,17.80
2017-11-03T10:54:01.743Z,18.77
2017-11-03T10:56:30.062Z,21.10
2017-11-03T10:58:59.128Z,17.20
2017-11-03T11:01:27.452Z,23.50
2017-11-03T11:03:55.765Z,22.53
2017-11-03T11:06:24.089Z,20.37
2017-11-03T11:08:53.161Z,20.40
2017-11-03T11:11:21.482Z,17.60
2017-11-03T11:13:49.810Z,17.80
2017-11-03T11:16:18.131Z,16.67
2017-11-03T11:18:46.441Z,18.90
2017-11-03T11:21:14.786Z,18.67
2017-11-03T11:23:43.106Z,14.50
2017-11-03T11:26:11.421Z,16.70
2017-11-03T11:28:40.490Z,16.07
2017-11-03T11:31:08.793Z,18.37
2017-11-03T11:33:37.877Z,21.30
2017-11-03T11:36:06.229Z,23.77
2017-11-03T11:38:34.547Z,22.40
2017-11-03T11:41:03.622Z,18.40
2017-11-03T11:43:31.933Z,19.57
2017-11-03T11:46:00.259Z,21.57
2017-11-03T11:48:28.574Z,19.33
2017-11-03T11:50:57.646Z,24.37
2017-11-03T11:53:25.970Z,15.93
2017-11-03T11:55:54.282Z,18.80
2017-11-03T11:58:22.597Z,18.70
2017-11-03T12:00:51.670Z,17.53
2017-11-03T12:03:19.989Z,18.50
2017-11-03T12:05:48.294Z,17.90
2017-11-03T12:08:16.605Z,21.33
2017-11-03T12:10:44.918Z,16.87
2017-11-03T12:13:13.237Z,17.57
2017-11-03T12:15:41.548Z,17.63
2017-11-03T12:18:10.635Z,13.03
2017-11-03T12:20:38.961Z,14.57
2017-11-03T12:23:07.289Z,15.90
2017-11-03T12:25:35.598Z,24.13
2017-11-03T12:28:03.906Z,15.00
2017-11-03T12:30:32.214Z,11.53
2017-11-03T12:33:00.536Z,11.27
2017-11-03T12:35:28.861Z,23.47
2017-11-03T12:37:57.182Z,12.57
2017-11-03T12:40:26.254Z,14.20
2017-11-03T12:42:54.586Z,10.70
2017-11-03T12:45:22.898Z,12.20
2017-11-03T12:47:51.221Z,11.90
2017-11-03T12:50:19.538Z,10.63
2017-11-03T12:52:47.856Z,13.43
2017-11-03T12:55:16.934Z,10.87
2017-11-03T12:57:45.246Z,18.73
2017-11-03T13:00:13.596Z,14.77
2017-11-03T13:02:42.671Z,16.70
2017-11-03T13:05:11.000Z,11.47
2017-11-03T13:07:40.310Z,13.40
2017-11-03T13:10:08.627Z,13.43
2017-11-03T13:12:36.950Z,12.00
2017-11-03T13:15:05.266Z,13.43
2017-11-03T13:17:33.590Z,12.77
2017-11-03T13:20:02.682Z,13.43
2017-11-03T13:22:30.998Z,11.47
2017-11-03T13:24:59.322Z,12.27
2017-11-03T13:27:27.618Z,10.70
2017-11-03T13:29:56.698Z,11.20
2017-11-03T13:32:25.773Z,14.00
2017-11-03T13:34:54.136Z,10.13
2017-11-03T13:37:22.441Z,7.53
2017-11-03T13:39:50.762Z,10.83
2017-11-03T13:42:19.066Z,13.00
2017-11-03T13:44:47.407Z,13.23
2017-11-03T13:47:15.710Z,10.60
2017-11-03T13:49:44.025Z,7.40
2017-11-03T13:52:12.326Z,9.87
2017-11-03T13:54:41.411Z,6.77
2017-11-03T13:57:10.486Z,7.10
2017-11-03T13:59:38.813Z,8.00
2017-11-03T14:02:07.126Z,14.87
2017-11-03T14:04:35.446Z,9.40
2017-11-03T14:07:04.514Z,8.77
2017-11-03T14:09:32.830Z,11.63
2017-11-03T14:12:01.138Z,8.73
2017-11-03T14:14:29.448Z,10.20
2017-11-03T14:16:57.749Z,9.33
2017-11-03T14:19:26.834Z,8.50
2017-11-03T14:21:55.141Z,10.37
2017-11-03T14:24:23.451Z,8.37
2017-11-03T14:26:51.770Z,11.43
2017-11-03T14:29:20.859Z,17.07
2017-11-03T14:31:49.193Z,14.13
2017-11-03T14:34:17.520Z,10.57
2017-11-03T14:36:46.594Z,12.53
2017-11-03T14:39:14.906Z,14.47
2017-11-03T14:41:43.981Z,11.00
2017-11-03T14:44:12.294Z,11.73
2017-11-03T14:46:41.373Z,12.93
2017-11-03T14:49:09.698Z,11.70
2017-11-03T14:51:37.998Z,18.30
2017-11-03T14:54:06.307Z,10.10
2017-11-03T14:56:34.626Z,8.53
2017-11-03T14:59:02.985Z,10.47
2017-11-03T15:01:31.312Z,11.63
2017-11-03T15:03:59.622Z,9.90
2017-11-03T15:06:27.939Z,12.00
2017-11-03T15:08:56.246Z,11.73
2017-11-03T15:11:24.553Z,8.90
2017-11-03T15:13:52.859Z,13.00
2017-11-03T15:16:21.194Z,11.00
2017-11-03T15:18:50.274Z,15.17
2017-11-03T15:21:18.600Z,19.50
2017-11-03T15:23:46.914Z,14.70
2017-11-03T15:26:15.233Z,13.67
2017-11-03T15:28:43.585Z,15.37
2017-11-03T15:31:11.904Z,13.97
2017-11-03T15:33:40.210Z,11.90
2017-11-03T15:36:08.530Z,11.13
2017-11-03T15:38:37.604Z,12.17
2017-11-03T15:41:05.919Z,11.00
2017-11-03T15:43:34.225Z,12.80
2017-11-03T15:46:02.547Z,12.97
2017-11-03T15:48:30.857Z,20.70
2017-11-03T15:50:59.171Z,14.37
2017-11-03T15:53:27.483Z,14.63
2017-11-03T15:55:56.573Z,14.83
2017-11-03T15:58:24.881Z,14.73
2017-11-03T16:00:53.198Z,11.47
2017-11-03T16:03:21.514Z,14.60
2017-11-03T16:05:50.601Z,17.80
2017-11-03T16:08:18.925Z,15.53
2017-11-03T16:10:47.245Z,13.30
2017-11-03T16:13:15.550Z,19.27
2017-11-03T16:15:44.638Z,15.83
2017-11-03T16:18:13.722Z,13.83
2017-11-03T16:20:42.050Z,14.20
2017-11-03T16:23:10.364Z,15.33
2017-11-03T16:25:38.696Z,17.03
2017-11-03T16:28:07.027Z,17.80
2017-11-03T16:30:35.362Z,17.53
2017-11-03T16:33:03.670Z,17.77
2017-11-03T16:35:31.995Z,19.90
2017-11-03T16:38:00.308Z,15.80
2017-11-03T16:40:28.642Z,16.80
2017-11-03T16:42:57.721Z,24.73
2017-11-03T16:45:26.810Z,21.37
2017-11-03T16:47:55.136Z,30.87
2017-11-03T16:50:23.456Z,21.53
2017-11-03T16:52:51.778Z,29.37
2017-11-03T16:55:20.086Z,26.67
2017-11-03T16:57:48.411Z,33.70
2017-11-03T17:00:20.463Z,33.40
2017-11-03T17:02:49.581Z,30.30
2017-11-03T17:05:18.652Z,30.33
2017-11-03T17:07:47.749Z,29.07
2017-11-03T17:10:16.831Z,33.13
2017-11-03T17:12:45.158Z,26.07
2017-11-03T17:15:13.473Z,34.93
2017-11-03T17:17:42.568Z,33.80
2017-11-03T17:20:10.902Z,34.37
2017-11-03T17:22:39.228Z,32.97
2017-11-03T17:25:07.543Z,34.80
2017-11-03T17:27:36.626Z,39.80
2017-11-03T17:30:05.707Z,45.33
2017-11-03T17:32:34.056Z,38.43
2017-11-03T17:35:02.394Z,41.57
2017-11-03T17:37:31.503Z,34.27
2017-11-03T17:39:59.816Z,41.73
2017-11-03T17:42:28.158Z,39.20
2017-11-03T17:44:56.473Z,32.53
2017-11-03T17:47:24.794Z,40.73
2017-11-03T17:49:53.884Z,35.70
2017-11-03T17:52:22.986Z,38.03
2017-11-03T17:54:52.054Z,38.97
2017-11-03T17:57:20.370Z,33.60
2017-11-03T17:59:48.675Z,34.23
2017-11-03T18:02:17.043Z,35.37
2017-11-03T18:04:45.362Z,38.17
2017-11-03T18:07:13.676Z,32.40
2017-11-03T18:09:41.995Z,30.67
2017-11-03T18:12:10.359Z,35.60
2017-11-03T18:14:38.666Z,33.30
2017-11-03T18:17:06.970Z,33.13
2017-11-03T18:19:36.064Z,41.20
2017-11-03T18:22:05.138Z,36.63
2017-11-03T18:24:33.482Z,35.93
2017-11-03T18:27:01.819Z,33.23
2017-11-03T18:29:30.925Z,33.03
2017-11-03T18:31:59.230Z,33.07
2017-11-03T18:34:27.544Z,32.60
2017-11-03T18:36:55.908Z,36.77
2017-11-03T18:39:24.245Z,31.27
2017-11-03T18:41:52.552Z,37.17
2017-11-03T18:44:21.633Z,33.43
2017-11-03T18:46:49.949Z,32.23
2017-11-03T18:49:18.332Z,31.47
2017-11-03T18:51:46.640Z,37.97
2017-11-03T18:54:14.999Z,30.57
2017-11-03T18:56:43.361Z,31.67
2017-11-03T18:59:11.678Z,33.27
2017-11-03T19:01:40.032Z,31.77
2017-11-03T19:04:08.358Z,31.67
2017-11-03T19:06:36.690Z,35.70
2017-11-03T19:09:05.774Z,36.43
2017-11-03T19:11:34.121Z,39.67
2017-11-03T19:14:02.431Z,33.97
2017-11-03T19:16:30.743Z,27.27
2017-11-03T19:18:59.078Z,34.33
2017-11-03T19:21:27.399Z,31.90
2017-11-03T19:23:55.722Z,37.33
2017-11-03T19:26:24.036Z,32.47
2017-11-03T19:28:53.181Z,38.40
2017-11-03T19:31:21.510Z,34.60
2017-11-03T19:33:50.655Z,36.17
2017-11-03T19:36:18.954Z,35.10
2017-11-03T19:38:47.332Z,33.53
2017-11-03T19:41:15.639Z,31.23
2017-11-03T19:43:44.724Z,34.97
2017-11-03T19:46:13.036Z,42.33
2017-11-03T19:48:41.389Z,38.47
2017-11-03T19:51:10.477Z,36.23
2017-11-03T19:53:39.572Z,39.37
2017-11-03T19:56:08.654Z,44.03
2017-11-03T19:58:36.963Z,41.87
2017-11-03T20:01:06.101Z,45.30
2017-11-03T20:03:34.462Z,38.43
2017-11-03T20:06:02.857Z,45.47
2017-11-03T20:08:31.223Z,43.17
2017-11-03T20:10:59.607Z,48.70
2017-11-03T20:13:27.952Z,47.97
2017-11-03T20:15:56.338Z,53.00
2017-11-03T20:18:24.721Z,53.77
2017-11-03T20:20:53.099Z,54.40
2017-11-03T20:23:21.409Z,48.73
2017-11-03T20:25:49.778Z,47.67
2017-11-03T20:28:18.087Z,52.00
2017-11-03T20:30:46.467Z,53.87
2017-11-03T20:33:14.792Z,53.97
2017-11-03T20:35:43.179Z,52.07
2017-11-03T20:38:11.478Z,51.53
2017-11-03T20:40:39.853Z,49.30
2017-11-03T20:43:08.180Z,60.53
2017-11-03T20:45:37.275Z,52.63
2017-11-03T20:48:05.641Z,53.80
2017-11-03T20:50:34.751Z,51.77
2017-11-03T20:53:03.078Z,56.53
2017-11-03T20:55:31.391Z,56.13
2017-11-03T20:58:00.485Z,68.30
2017-11-03T21:00:29.635Z,58.10
2017-11-03T21:02:57.945Z,64.13
2017-11-03T21:05:26.275Z,65.90
2017-11-03T21:07:54.646Z,64.00
2017-11-03T21:10:22.961Z,55.50
2017-11-03T21:12:51.354Z,59.70
2017-11-03T21:15:19.691Z,58.70
2017-11-03T21:17:48.049Z,60.33
2017-11-03T21:20:17.189Z,53.97
2017-11-03T21:22:45.566Z,67.33
2017-11-03T21:25:13.921Z,56.83
2017-11-03T21:27:42.283Z,62.70
2017-11-03T21:30:10.641Z,67.00
2017-11-03T21:32:39.005Z,66.47
2017-11-03T21:35:07.358Z,59.73
2017-11-03T21:37:35.746Z,68.50
2017-11-03T21:40:04.866Z,73.50
2017-11-03T21:42:33.198Z,63.70
2017-11-03T21:45:01.571Z,69.03
2017-11-03T21:47:29.883Z,62.93
2017-11-03T21:49:58.195Z,67.53
2017-11-03T21:52:27.338Z,66.70
2017-11-03T21:54:55.698Z,72.50
2017-11-03T21:57:24.014Z,76.17
2017-11-03T21:59:52.381Z,94.93
2017-11-03T22:02:20.745Z,78.80
2017-11-03T22:04:49.047Z,82.50
2017-11-03T22:07:17.415Z,70.60
2017-11-03T22:09:45.721Z,75.30
2017-11-03T22:12:14.087Z,78.93
2017-11-03T22:14:42.402Z,85.57
2017-11-03T22:17:10.726Z,69.97
2017-11-03T22:19:39.080Z,78.73
2017-11-03T22:22:07.950Z,77.10
2017-11-03T22:24:36.262Z,77.03
2017-11-03T22:27:05.478Z,93.37
2017-11-03T22:29:33.822Z,83.27
2017-11-03T22:32:02.192Z,77.63
2017-11-03T22:34:30.567Z,86.23
2017-11-03T22:36:58.929Z,86.20
2017-11-03T22:39:28.014Z,76.10
2017-11-03T22:41:56.316Z,81.10
2017-11-03T22:44:24.687Z,78.63
2017-11-03T22:46:53.006Z,84.90
2017-11-03T22:49:21.337Z,89.13
2017-11-03T22:51:50.402Z,82.60
2017-11-03T22:54:18.722Z,84.63
2017-11-03T22:56:47.030Z,82.83
2017-11-03T23:01:50.678Z,89.10
2017-11-03T23:04:19.087Z,76.53
2017-11-03T23:06:47.410Z,84.60
2017-11-03T23:09:15.747Z,83.73
2017-11-03T23:11:44.074Z,81.97
2017-11-03T23:14:12.445Z,89.43
2017-11-03T23:16:40.750Z,81.20
2017-11-03T23:19:09.118Z,83.10
2017-11-03T23:21:37.431Z,84.93
2017-11-03T23:24:06.515Z,86.93
2017-11-03T23:26:35.586Z,92.30
2017-11-03T23:29:03.903Z,83.83
2017-11-03T23:31:32.232Z,106.87
2017-11-03T23:34:00.599Z,101.10
2017-11-03T23:36:28.905Z,89.80
2017-11-03T23:38:57.219Z,84.50
2017-11-03T23:41:25.533Z,85.57
2017-11-03T23:43:53.857Z,83.53
2017-11-03T23:46:22.957Z,84.30
2017-11-03T23:48:52.038Z,92.17
2017-11-03T23:51:20.346Z,80.37
2017-11-03T23:53:48.672Z,89.80
2017-11-03T23:56:16.997Z,79.77
2017-11-03T23:58:45.325Z,87.20
